Time;durP1;ratioP1;P1;durP2;ratioP2;P2;SDS_P1;SDS_P2;PMS_P1;PMS_P2;Temp;Humidity;BMP_temperature;BMP_pressure;BME280_temperature;BME280_humidity;BME280_pressure;Samples;Min_cycle;Max_cycle;Signal;HPM_P1;HPM_P2
2023/05/15 00:02:17;;;;;;;46.15;30.88;;;12.20;99.90;;;;;;5012883;28;20046;-79
2023/05/15 00:04:43;;;;;;;45.13;31.65;;;12.20;99.90;;;;;;4995965;28;20514;-80
2023/05/15 00:07:09;;;;;;;46.00;32.00;;;12.20;99.90;;;;;;4995730;28;20046;-79
2023/05/15 00:09:35;;;;;;;44.80;31.77;;;12.20;99.90;;;;;;4995673;28;20046;-80
2023/05/15 00:12:01;;;;;;;44.03;30.20;;;12.20;99.90;;;;;;5012803;28;20096;-79
2023/05/15 00:14:27;;;;;;;47.38;31.52;;;12.20;99.90;;;;;;4995220;28;20085;-80
2023/05/15 00:16:52;;;;;;;53.45;31.90;;;12.20;99.90;;;;;;4995903;28;20050;-79
2023/05/15 00:19:18;;;;;;;47.08;31.60;;;12.10;99.90;;;;;;5012703;28;20077;-80
2023/05/15 00:21:44;;;;;;;48.13;30.45;;;12.10;99.90;;;;;;4995922;28;20046;-79
2023/05/15 00:24:09;;;;;;;52.92;31.95;;;12.10;99.90;;;;;;5013110;28;20046;-80
2023/05/15 00:26:35;;;;;;;43.50;31.20;;;12.10;99.90;;;;;;4979761;28;20360;-79
2023/05/15 00:29:01;;;;;;;38.70;28.10;;;12.00;99.90;;;;;;4994756;28;20041;-79
2023/05/15 00:31:27;;;;;;;39.05;30.23;;;12.00;99.90;;;;;;5012506;28;20073;-79
2023/05/15 00:33:53;;;;;;;43.40;27.52;;;12.10;99.90;;;;;;5012735;28;20081;-78
2023/05/15 00:36:20;;;;;;;48.90;33.17;;;12.10;99.90;;;;;;4995073;28;20049;-79
2023/05/15 00:38:46;;;;;;;43.83;27.25;;;12.10;99.90;;;;;;5012445;28;20121;-79
2023/05/15 00:41:13;;;;;;;89.20;35.42;;;12.10;99.90;;;;;;4994968;28;20081;-79
2023/05/15 00:43:40;;;;;;;81.22;35.38;;;12.00;99.90;;;;;;5012577;28;20057;-79
2023/05/15 00:46:06;;;;;;;63.05;36.13;;;12.00;99.90;;;;;;4995117;28;20505;-80
2023/05/15 00:48:32;;;;;;;60.92;32.58;;;11.90;99.90;;;;;;5012406;28;20054;-79
2023/05/15 00:50:58;;;;;;;41.50;31.10;;;11.90;99.90;;;;;;4994967;28;20046;-79
2023/05/15 00:53:26;;;;;;;45.63;30.75;;;11.90;99.90;;;;;;4997158;28;20057;-79
2023/05/15 00:55:55;;;;;;;44.08;30.95;;;11.90;99.90;;;;;;4981354;28;20053;-78
2023/05/15 00:58:22;;;;;;;78.43;39.00;;;11.90;99.90;;;;;;4997506;28;20466;-79
2023/05/15 01:00:49;;;;;;;49.95;33.05;;;11.90;99.90;;;;;;4997035;28;20125;-80
2023/05/15 01:03:16;;;;;;;45.75;32.47;;;11.90;99.90;;;;;;5017372;28;20050;-78
2023/05/15 01:05:42;;;;;;;43.65;30.38;;;11.90;99.90;;;;;;5018838;28;20042;-78
2023/05/15 01:08:25;;;;;;;53.42;36.70;;;11.90;99.90;;;;;;5016420;28;20127;-79
2023/05/15 01:10:51;;;;;;;43.65;31.23;;;11.90;99.90;;;;;;5015450;28;20120;-79
2023/05/15 01:13:20;;;;;;;43.22;30.25;;;11.90;99.90;;;;;;4982567;28;20045;-80
2023/05/15 01:15:46;;;;;;;48.00;33.53;;;11.90;99.90;;;;;;5016355;28;20096;-79
2023/05/15 01:18:11;;;;;;;45.97;32.33;;;11.90;99.90;;;;;;5015628;28;20054;-77
2023/05/15 01:21:04;;;;;;;45.10;33.35;;;12.00;99.90;;;;;;4998526;28;20391;-79
2023/05/15 01:23:45;;;;;;;46.20;32.85;;;12.00;99.90;;;;;;4998118;28;20058;-80
2023/05/15 01:26:30;;;;;;;51.60;34.35;;;12.00;99.90;;;;;;4982399;28;20111;-80
2023/05/15 01:29:36;;;;;;;43.78;32.70;;;12.00;99.90;;;;;;5014965;28;20064;-79
2023/05/15 01:32:08;;;;;;;43.40;32.63;;;12.00;99.90;;;;;;4997455;28;20054;-80
2023/05/15 01:34:57;;;;;;;46.97;34.30;;;12.00;99.90;;;;;;5015825;28;20041;-78
2023/05/15 01:37:24;;;;;;;39.10;27.90;;;12.00;99.90;;;;;;4998317;28;20340;-78
2023/05/15 01:39:54;;;;;;;41.22;29.23;;;11.90;99.90;;;;;;5015665;28;20049;-75
2023/05/15 01:42:25;;;;;;;42.10;31.88;;;11.90;99.90;;;;;;4982416;28;20466;-77
2023/05/15 01:44:54;;;;;;;41.35;31.20;;;11.90;99.90;;;;;;5015274;28;20382;-78
2023/05/15 01:47:34;;;;;;;42.75;32.42;;;11.90;99.90;;;;;;5015529;28;20061;-78
2023/05/15 01:50:03;;;;;;;42.55;30.83;;;11.90;99.90;;;;;;4998131;28;20104;-78
2023/05/15 01:52:32;;;;;;;48.97;33.38;;;11.80;99.90;;;;;;4982180;28;20096;-77
2023/05/15 01:55:00;;;;;;;41.83;30.13;;;11.90;99.90;;;;;;5015054;28;20049;-78
2023/05/15 01:57:27;;;;;;;46.03;31.48;;;11.90;99.90;;;;;;5015784;28;20064;-78
2023/05/15 01:59:54;;;;;;;41.40;30.95;;;11.80;99.90;;;;;;4997961;28;20076;-79
2023/05/15 02:02:22;;;;;;;51.58;34.65;;;11.80;99.90;;;;;;5015408;28;20077;-79
2023/05/15 02:04:49;;;;;;;38.10;29.10;;;11.80;99.90;;;;;;4998058;28;20085;-79
2023/05/15 02:07:15;;;;;;;42.47;30.65;;;11.70;99.90;;;;;;5014788;28;20518;-78
2023/05/15 02:09:42;;;;;;;40.13;29.58;;;11.70;99.90;;;;;;5014880;28;20042;-78
2023/05/15 02:12:09;;;;;;;44.88;32.08;;;11.80;99.90;;;;;;4997431;28;20155;-79
2023/05/15 02:14:37;;;;;;;42.10;28.77;;;11.70;99.90;;;;;;5014719;28;20048;-79
2023/05/15 02:17:03;;;;;;;43.58;31.00;;;11.70;99.90;;;;;;5015207;28;20153;-78
2023/05/15 02:19:29;;;;;;;46.42;32.25;;;11.70;99.90;;;;;;5014681;28;20037;-78
2023/05/15 02:21:55;;;;;;;43.55;30.85;;;11.70;99.90;;;;;;5013847;28;20049;-78
2023/05/15 02:24:20;;;;;;;41.63;30.67;;;11.80;99.90;;;;;;4997004;28;20054;-78
2023/05/15 02:26:52;;;;;;;49.25;32.33;;;11.80;99.90;;;;;;5014916;28;20041;-79
2023/05/15 02:29:20;;;;;;;33.22;24.90;;;11.80;99.90;;;;;;4997798;28;20056;-80
2023/05/15 02:32:08;;;;;;;46.35;32.83;;;11.90;99.90;;;;;;4997171;28;20116;-78
2023/05/15 02:35:02;;;;;;;42.72;30.13;;;11.80;99.90;;;;;;4997301;28;20042;-78
2023/05/15 02:37:30;;;;;;;;;;;11.80;99.90;;;;;;4997467;28;20061;-78
2023/05/15 02:39:58;;;;;;;42.50;31.13;;;11.70;99.90;;;;;;5013986;28;19928;-79
2023/05/15 02:42:26;;;;;;;37.75;27.58;;;11.80;99.90;;;;;;4996502;28;20085;-74
2023/05/15 02:44:54;;;;;;;38.80;27.75;;;11.80;99.90;;;;;;5014061;28;20037;-77
2023/05/15 02:47:22;;;;;;;41.95;29.58;;;11.80;99.90;;;;;;5013958;28;20058;-79
2023/05/15 02:49:48;;;;;;;39.35;29.17;;;11.70;99.90;;;;;;5013768;28;20103;-75
2023/05/15 02:52:14;;;;;;;38.28;29.83;;;11.70;99.90;;;;;;4996576;28;20057;-78
2023/05/15 02:54:40;;;;;;;40.72;28.17;;;11.70;99.90;;;;;;5013272;28;20046;-76
2023/05/15 02:57:07;;;;;;;38.28;28.02;;;11.70;99.90;;;;;;5013655;28;20513;-80
2023/05/15 02:59:33;;;;;;;42.05;30.20;;;11.70;99.90;;;;;;5013826;28;20155;-76
2023/05/15 03:01:59;;;;;;;42.15;29.90;;;11.70;99.90;;;;;;5013695;28;20133;-75
2023/05/15 03:04:25;;;;;;;42.20;30.58;;;11.70;99.90;;;;;;5013376;28;20114;-76
2023/05/15 03:06:50;;;;;;;39.13;30.15;;;11.70;99.90;;;;;;4996224;28;20114;-75
2023/05/15 03:09:16;;;;;;;44.80;31.23;;;11.70;99.90;;;;;;5013493;28;20054;-75
2023/05/15 03:11:42;;;;;;;52.15;35.85;;;11.70;99.90;;;;;;5013697;28;20483;-77
2023/05/15 03:14:08;;;;;;;55.28;34.50;;;11.70;99.90;;;;;;5013643;28;20104;-79
2023/05/15 03:16:35;;;;;;;59.47;35.65;;;11.60;99.90;;;;;;5013337;28;20439;-75
2023/05/15 03:19:01;;;;;;;40.90;30.20;;;11.50;99.90;;;;;;4995818;28;20049;-78
2023/05/15 03:21:27;;;;;;;61.10;35.72;;;11.50;99.90;;;;;;5013411;28;20050;-75
2023/05/15 03:23:53;;;;;;;58.88;33.90;;;12.50;99.90;;;;;;5013688;28;20046;-76
2023/05/15 03:26:18;;;;;;;47.15;32.83;;;11.40;99.90;;;;;;4979917;28;20064;-76
2023/05/15 03:28:44;;;;;;;41.22;29.48;;;11.50;99.90;;;;;;4996183;28;20206;-76
2023/05/15 03:31:10;;;;;;;67.75;34.90;;;11.50;99.90;;;;;;5013403;28;20057;-76
2023/05/15 03:33:36;;;;;;;81.07;35.22;;;11.50;99.90;;;;;;4995499;28;20046;-79
2023/05/15 03:36:02;;;;;;;54.67;35.45;;;11.40;99.90;;;;;;5013009;28;20565;-76
2023/05/15 03:38:28;;;;;;;52.47;32.70;;;11.30;99.90;;;;;;5013041;28;20053;-75
2023/05/15 03:40:53;;;;;;;40.67;30.08;;;11.30;99.90;;;;;;5013059;28;20104;-76
2023/05/15 03:43:19;;;;;;;41.60;31.08;;;11.30;99.90;;;;;;5013113;28;20081;-75
2023/05/15 03:45:45;;;;;;;45.88;30.58;;;11.20;99.90;;;;;;5012676;28;20044;-74
2023/05/15 03:48:10;;;;;;;49.45;31.33;;;11.10;99.90;;;;;;5013505;28;20395;-75
2023/05/15 03:50:36;;;;;;;40.08;30.40;;;11.10;99.90;;;;;;5012987;28;20054;-76
2023/05/15 03:53:02;;;;;;;43.60;31.80;;;11.10;99.90;;;;;;4995571;28;20103;-77
2023/05/15 03:55:27;;;;;;;42.33;30.73;;;11.10;99.90;;;;;;5012867;28;20184;-75
2023/05/15 03:57:53;;;;;;;43.55;31.75;;;11.00;99.90;;;;;;5012902;28;20086;-75
2023/05/15 04:00:19;;;;;;;39.30;29.02;;;11.00;99.90;;;;;;5012836;28;20057;-76
2023/05/15 04:02:45;;;;;;;39.78;27.42;;;10.90;99.90;;;;;;4995854;28;20123;-75
2023/05/15 04:05:10;;;;;;;41.13;28.38;;;10.90;99.90;;;;;;5013768;28;20073;-76
2023/05/15 04:07:37;;;;;;;36.78;27.42;;;10.90;99.90;;;;;;4996587;28;20488;-76
2023/05/15 04:10:03;;;;;;;38.03;26.70;;;10.80;99.90;;;;;;4995492;28;20442;-76
2023/05/15 04:12:33;;;;;;;42.65;26.25;;;10.80;99.90;;;;;;5012629;28;20060;-76
2023/05/15 04:15:16;;;;;;;35.55;25.20;;;10.80;99.90;;;;;;4979246;28;20541;-76
2023/05/15 04:17:43;;;;;;;39.85;27.33;;;10.80;99.90;;;;;;4995196;28;20129;-78
2023/05/15 04:20:10;;;;;;;40.47;28.75;;;10.80;99.90;;;;;;5012695;28;20050;-75
2023/05/15 04:22:36;;;;;;;46.08;31.05;;;10.80;99.90;;;;;;5014983;28;20045;-75
2023/05/15 04:25:01;;;;;;;39.00;26.65;;;10.70;99.90;;;;;;5015765;28;20045;-76
2023/05/15 04:27:27;;;;;;;37.95;28.35;;;10.70;99.90;;;;;;5014163;28;20096;-76
2023/05/15 04:29:53;;;;;;;41.63;29.98;;;10.60;99.90;;;;;;4996491;28;20053;-76
2023/05/15 04:32:18;;;;;;;43.42;29.20;;;10.40;99.90;;;;;;5012971;28;20050;-75
2023/05/15 04:34:45;;;;;;;38.67;26.80;;;10.40;99.90;;;;;;4995540;28;20504;-75
2023/05/15 04:37:11;;;;;;;40.22;29.00;;;10.40;99.90;;;;;;4995253;28;20050;-75
2023/05/15 04:39:36;;;;;;;37.35;27.70;;;10.30;99.90;;;;;;4995937;28;20085;-76
2023/05/15 04:42:02;;;;;;;38.97;25.52;;;10.30;99.90;;;;;;4995281;28;20046;-75
2023/05/15 04:44:28;;;;;;;39.50;26.77;;;10.40;99.90;;;;;;5013207;28;20594;-75
2023/05/15 04:46:54;;;;;;;33.95;23.65;;;10.40;99.90;;;;;;4997748;28;20133;-75
2023/05/15 04:49:19;;;;;;;31.15;23.02;;;10.40;99.90;;;;;;4998796;28;20538;-76
2023/05/15 04:51:45;;;;;;;32.38;23.50;;;10.50;99.90;;;;;;4982891;28;20046;-75
2023/05/15 04:54:11;;;;;;;32.25;22.77;;;10.50;99.90;;;;;;4998907;28;20052;-75
2023/05/15 04:56:36;;;;;;;31.73;23.38;;;10.60;99.90;;;;;;5016406;28;20052;-74
2023/05/15 04:59:02;;;;;;;29.67;21.98;;;10.60;99.90;;;;;;5016162;28;20461;-75
2023/05/15 05:01:28;;;;;;;33.10;21.98;;;10.70;99.90;;;;;;4983164;28;20050;-76
2023/05/15 05:03:54;;;;;;;29.52;21.33;;;10.80;99.90;;;;;;5015965;28;20065;-75
2023/05/15 05:06:19;;;;;;;29.30;21.20;;;10.80;99.90;;;;;;5016031;28;20045;-76
2023/05/15 05:08:45;;;;;;;26.02;21.40;;;10.60;99.90;;;;;;4998244;28;20149;-76
2023/05/15 05:11:11;;;;;;;32.33;22.40;;;10.60;99.90;;;;;;4983124;28;20056;-75
2023/05/15 05:13:36;;;;;;;28.48;22.73;;;10.70;99.90;;;;;;4998987;28;20080;-76
2023/05/15 05:16:02;;;;;;;34.83;24.08;;;10.70;99.90;;;;;;5015683;28;20046;-75
2023/05/15 05:18:29;;;;;;;28.35;22.55;;;10.70;99.90;;;;;;5015866;28;20052;-75
2023/05/15 05:21:00;;;;;;;32.42;21.92;;;10.70;99.90;;;;;;5015670;28;20055;-76
2023/05/15 05:23:25;;;;;;;31.92;23.42;;;10.80;99.90;;;;;;4997993;28;20046;-76
2023/05/15 05:25:51;;;;;;;30.45;23.45;;;10.90;99.90;;;;;;4998338;28;20069;-75
2023/05/15 05:28:17;;;;;;;29.13;22.20;;;10.90;99.90;;;;;;5015612;28;20467;-75
2023/05/15 05:30:46;;;;;;;29.08;21.70;;;10.90;99.90;;;;;;5015457;28;20042;-75
2023/05/15 05:33:12;;;;;;;27.02;22.05;;;11.10;99.90;;;;;;4982023;28;20480;-74
2023/05/15 05:35:38;;;;;;;25.20;19.77;;;11.20;99.90;;;;;;5015411;28;20092;-77
2023/05/15 05:38:03;;;;;;;30.10;21.20;;;11.40;99.90;;;;;;5015285;28;20478;-75
2023/05/15 05:40:29;;;;;;;30.52;22.83;;;11.50;99.90;;;;;;5013973;28;20061;-75
2023/05/15 05:42:59;;;;;;;29.60;21.67;;;11.70;99.90;;;;;;5015385;28;20046;-76
2023/05/15 05:45:25;;;;;;;25.70;20.15;;;12.00;99.90;;;;;;5015740;28;20046;-77
2023/05/15 05:47:51;;;;;;;23.98;20.25;;;12.20;99.90;;;;;;5016130;28;20061;-76
2023/05/15 05:50:16;;;;;;;25.13;20.25;;;12.30;99.90;;;;;;5015319;28;20050;-76
2023/05/15 05:52:42;;;;;;;23.95;20.48;;;12.50;99.90;;;;;;4998177;28;20049;-75
2023/05/15 05:55:08;;;;;;;23.10;17.98;;;12.70;99.90;;;;;;5015345;28;20064;-75
2023/05/15 05:57:34;;;;;;;25.25;18.77;;;12.70;99.90;;;;;;4997282;28;20147;-75
2023/05/15 06:00:00;;;;;;;21.10;18.30;;;12.90;99.90;;;;;;4998222;28;20081;-76
2023/05/15 06:02:25;;;;;;;23.33;17.80;;;13.10;99.90;;;;;;4997647;28;20112;-77
2023/05/15 06:04:51;;;;;;;20.70;16.92;;;13.20;99.90;;;;;;4998075;28;20046;-75
2023/05/15 06:07:17;;;;;;;25.13;16.58;;;13.20;99.90;;;;;;5014647;28;20042;-77
2023/05/15 06:09:44;;;;;;;19.85;14.95;;;13.30;99.90;;;;;;5014975;28;20506;-76
2023/05/15 06:12:11;;;;;;;19.77;15.38;;;13.40;99.90;;;;;;4998047;28;20370;-76
2023/05/15 06:14:36;;;;;;;18.80;14.48;;;13.30;99.90;;;;;;4997677;28;20066;-76
2023/05/15 06:17:02;;;;;;;18.67;14.77;;;13.20;99.90;;;;;;4997603;28;20045;-76
2023/05/15 06:19:28;;;;;;;18.25;14.75;;;13.00;99.90;;;;;;5014573;28;20136;-76
2023/05/15 06:21:54;;;;;;;22.38;16.23;;;12.80;99.90;;;;;;5015134;28;20046;-76
2023/05/15 06:24:19;;;;;;;18.23;14.90;;;12.70;99.90;;;;;;4997278;28;20605;-76
2023/05/15 06:26:45;;;;;;;16.10;14.23;;;12.80;99.90;;;;;;5014889;28;20056;-76
2023/05/15 06:29:11;;;;;;;15.82;14.05;;;12.90;99.90;;;;;;4997077;28;20050;-78
2023/05/15 06:31:36;;;;;;;16.75;13.98;;;13.10;99.90;;;;;;4997723;28;20049;-77
2023/05/15 06:34:02;;;;;;;16.63;13.32;;;13.60;99.90;;;;;;5014314;28;20081;-76
2023/05/15 06:36:28;;;;;;;16.98;13.55;;;14.50;99.90;;;;;;5014265;28;20058;-76
2023/05/15 06:38:53;;;;;;;15.35;12.15;;;15.60;99.90;;;;;;5014148;28;20048;-76
2023/05/15 06:41:20;;;;;;;15.10;11.98;;;16.40;99.90;;;;;;5014067;28;20136;-79
2023/05/15 06:43:46;;;;;;;17.48;12.30;;;17.10;99.90;;;;;;4997465;28;20108;-76
2023/05/15 06:46:14;;;;;;;13.85;11.10;;;18.00;99.90;;;;;;5014063;28;20049;-76
2023/05/15 06:48:40;;;;;;;13.68;10.77;;;18.50;99.90;;;;;;5014334;28;20058;-77
2023/05/15 06:51:06;;;;;;;14.75;12.05;;;19.10;99.90;;;;;;5013935;28;20092;-77
2023/05/15 06:53:32;;;;;;;14.20;11.20;;;19.40;99.90;;;;;;5013912;28;20061;-76
2023/05/15 06:55:57;;;;;;;12.35;10.80;;;19.80;99.90;;;;;;4996263;28;20049;-76
2023/05/15 06:58:24;;;;;;;12.45;10.52;;;19.80;99.90;;;;;;5014021;28;20135;-76
2023/05/15 07:00:50;;;;;;;15.05;10.98;;;20.00;99.90;;;;;;5013698;28;20053;-77
2023/05/15 07:03:16;;;;;;;15.38;10.80;;;19.70;99.90;;;;;;4996187;28;20200;-77
2023/05/15 07:05:42;;;;;;;10.02;9.02;;;19.20;99.90;;;;;;4996283;28;20046;-77
2023/05/15 07:08:07;;;;;;;13.13;10.65;;;18.90;99.90;;;;;;5013417;28;20508;-77
2023/05/15 07:10:33;;;;;;;15.63;11.93;;;18.70;99.90;;;;;;5013707;28;20045;-77
2023/05/15 07:12:59;;;;;;;14.68;10.45;;;18.00;99.90;;;;;;5013561;28;20092;-78
2023/05/15 07:15:24;;;;;;;11.40;10.20;;;18.30;99.90;;;;;;5013550;28;20076;-76
2023/05/15 07:17:50;;;;;;;12.02;10.30;;;18.20;99.90;;;;;;5013905;28;20073;-80
2023/05/15 07:20:16;;;;;;;12.63;9.77;;;17.80;99.90;;;;;;4995882;28;20042;-77
2023/05/15 07:22:42;;;;;;;13.10;11.55;;;17.80;99.90;;;;;;4996176;28;20125;-78
2023/05/15 07:25:08;;;;;;;11.60;10.40;;;17.90;99.90;;;;;;4996388;28;20454;-78
2023/05/15 07:27:34;;;;;;;14.60;10.80;;;17.90;99.90;;;;;;5013117;28;20478;-77
2023/05/15 07:30:03;;;;;;;12.18;9.70;;;18.10;99.90;;;;;;4996314;28;20065;-77
2023/05/15 07:32:29;;;;;;;13.35;8.68;;;18.60;99.90;;;;;;4995862;28;20088;-80
2023/05/15 07:34:55;;;;;;;12.95;9.20;;;19.00;99.90;;;;;;4995740;28;20038;-79
2023/05/15 07:37:24;;;;;;;14.32;9.85;;;19.20;99.90;;;;;;5013216;28;20460;-78
2023/05/15 07:39:50;;;;;;;14.23;9.20;;;20.30;99.90;;;;;;5013393;28;20060;-78
2023/05/15 07:42:16;;;;;;;11.00;9.07;;;20.10;99.90;;;;;;4980330;28;20483;-78
2023/05/15 07:44:42;;;;;;;11.05;9.07;;;20.40;99.90;;;;;;4997019;28;20045;-78
2023/05/15 07:47:07;;;;;;;12.18;9.43;;;20.80;99.40;;;;;;5013991;28;20450;-80
2023/05/15 07:49:33;;;;;;;12.48;9.30;;;21.30;99.00;;;;;;5013469;28;20060;-78
2023/05/15 07:52:00;;;;;;;11.73;9.32;;;21.90;98.50;;;;;;4996077;28;20050;-80
2023/05/15 07:54:26;;;;;;;13.20;9.25;;;22.30;97.80;;;;;;4996409;28;20049;-78
2023/05/15 07:56:53;;;;;;;8.75;7.32;;;22.80;96.80;;;;;;4995766;28;20092;-80
2023/05/15 07:59:19;;;;;;;10.93;9.10;;;22.00;97.00;;;;;;5013144;28;20050;-76
2023/05/15 08:01:44;;;;;;;13.20;8.18;;;21.90;96.50;;;;;;5012873;28;20056;-74
2023/05/15 08:04:10;;;;;;;13.18;9.02;;;21.00;93.90;;;;;;4995598;28;20077;-76
2023/05/15 08:06:39;;;;;;;8.50;7.38;;;20.70;95.40;;;;;;5012981;28;20050;-75
2023/05/15 08:09:05;;;;;;;9.52;8.55;;;20.80;97.10;;;;;;5012888;28;20117;-76
2023/05/15 08:11:30;;;;;;;8.15;7.35;;;19.90;97.30;;;;;;4979578;28;20143;-75
2023/05/15 08:13:56;;;;;;;9.02;7.32;;;20.60;97.60;;;;;;4995795;28;20049;-74
2023/05/15 08:16:22;;;;;;;10.57;9.07;;;21.00;97.30;;;;;;4995276;28;20049;-75
2023/05/15 08:18:51;;;;;;;10.43;7.57;;;21.60;96.70;;;;;;4979164;28;20049;-74
2023/05/15 08:21:17;;;;;;;8.27;7.05;;;21.50;96.60;;;;;;5014580;28;20089;-74
2023/05/15 08:23:43;;;;;;;9.80;8.10;;;22.20;96.30;;;;;;5016507;28;20057;-76
2023/05/15 08:26:08;;;;;;;9.38;7.53;;;22.40;95.60;;;;;;4999294;28;20045;-72
2023/05/15 08:28:34;;;;;;;8.63;7.50;;;22.30;94.90;;;;;;5016586;28;20046;-73
2023/05/15 08:31:00;;;;;;;9.43;7.75;;;22.30;94.20;;;;;;5016629;28;20092;-73
2023/05/15 08:33:25;;;;;;;6.75;6.10;;;22.50;95.20;;;;;;5016502;28;20125;-75
2023/05/15 08:35:51;;;;;;;11.82;7.45;;;23.10;95.20;;;;;;5016626;28;20061;-72
2023/05/15 08:38:17;;;;;;;9.55;8.00;;;23.80;94.60;;;;;;5016876;28;20418;-76
2023/05/15 08:40:46;;;;;;;7.03;6.25;;;23.70;93.40;;;;;;5016113;28;20053;-72
2023/05/15 08:43:14;;;;;;;9.57;7.10;;;23.90;92.20;;;;;;4998928;28;20046;-73
2023/05/15 08:45:40;;;;;;;8.60;6.72;;;24.10;93.40;;;;;;5016254;28;20049;-73
2023/05/15 08:48:24;;;;;;;11.00;6.80;;;24.20;93.10;;;;;;5016276;28;20049;-66
2023/05/15 08:50:50;;;;;;;7.30;6.63;;;24.60;92.20;;;;;;5016175;28;20050;-73
2023/05/15 08:53:16;;;;;;;6.85;6.05;;;24.60;92.60;;;;;;5016770;28;20068;-72
2023/05/15 08:55:42;;;;;;;11.02;7.15;;;25.00;92.50;;;;;;4998786;28;20073;-72
2023/05/15 08:58:08;;;;;;;7.72;6.88;;;24.90;91.90;;;;;;5016179;28;20553;-76
2023/05/15 09:00:34;;;;;;;7.78;6.97;;;24.00;91.50;;;;;;4998765;28;20045;-74
2023/05/15 09:03:00;;;;;;;7.93;6.13;;;23.70;90.80;;;;;;4998924;28;20049;-73
2023/05/15 09:05:28;;;;;;;8.52;7.22;;;23.90;92.00;;;;;;4998827;28;20038;-73
2023/05/15 09:07:54;;;;;;;8.30;6.88;;;23.90;91.60;;;;;;5015867;28;20100;-72
2023/05/15 09:10:20;;;;;;;7.90;6.53;;;24.30;91.40;;;;;;5015781;28;20061;-74
2023/05/15 09:12:50;;;;;;;7.43;6.70;;;24.20;91.50;;;;;;5015825;28;20076;-72
2023/05/15 09:15:21;;;;;;;7.22;6.53;;;24.10;90.30;;;;;;5016458;28;20123;-73
2023/05/15 09:17:47;;;;;;;7.75;6.43;;;24.70;91.00;;;;;;5016187;28;20049;-73
2023/05/15 09:20:31;;;;;;;7.35;6.65;;;25.00;91.10;;;;;;5016152;28;20057;-73
2023/05/15 09:22:59;;;;;;;8.57;6.72;;;25.30;88.90;;;;;;5015491;28;20045;-75
2023/05/15 09:25:38;;;;;;;8.38;7.57;;;25.40;90.60;;;;;;5015655;28;20049;-73
2023/05/15 09:28:26;;;;;;;8.38;7.13;;;24.80;86.10;;;;;;5015976;28;20475;-74
2023/05/15 09:31:01;;;;;;;7.22;6.63;;;24.60;87.30;;;;;;5015426;28;20085;-73
2023/05/15 09:33:37;;;;;;;7.57;6.75;;;24.20;89.30;;;;;;4998545;28;20553;-73
2023/05/15 09:36:05;;;;;;;7.32;6.20;;;24.60;90.00;;;;;;5016068;28;20057;-74
2023/05/15 09:38:40;;;;;;;7.30;6.70;;;24.90;90.70;;;;;;4997785;28;20042;-75
2023/05/15 09:41:07;;;;;;;9.10;6.70;;;25.20;89.20;;;;;;4998232;28;20091;-75
2023/05/15 09:43:38;;;;;;;8.20;6.88;;;25.20;89.90;;;;;;5015547;28;20049;-75
2023/05/15 09:46:05;;;;;;;12.70;6.22;;;25.30;87.80;;;;;;4998123;28;20140;-74
2023/05/15 09:48:31;;;;;;;7.25;6.40;;;25.00;90.10;;;;;;5015482;28;20097;-74
2023/05/15 09:50:57;;;;;;;7.22;5.80;;;25.10;88.80;;;;;;4997632;28;20038;-77
2023/05/15 09:53:23;;;;;;;6.78;5.28;;;25.10;88.70;;;;;;4997705;28;20052;-73
2023/05/15 09:55:51;;;;;;;8.23;5.85;;;25.20;88.20;;;;;;4997415;28;20050;-75
2023/05/15 09:58:17;;;;;;;5.90;5.35;;;25.30;87.50;;;;;;5014769;28;20054;-74
2023/05/15 10:00:45;;;;;;;7.07;6.45;;;25.40;87.10;;;;;;5015100;28;20056;-73
2023/05/15 10:03:10;;;;;;;7.18;5.22;;;25.60;86.20;;;;;;4981435;28;20494;-74
2023/05/15 10:05:37;;;;;;;7.15;5.82;;;25.40;87.00;;;;;;5014682;28;20093;-75
2023/05/15 10:08:03;;;;;;;11.05;5.75;;;24.50;86.50;;;;;;4997354;28;20479;-74
2023/05/15 10:10:30;;;;;;;8.18;6.43;;;24.60;87.50;;;;;;5014924;28;20115;-75
2023/05/15 10:13:00;;;;;;;8.15;7.22;;;24.70;88.10;;;;;;4997862;28;20060;-74
2023/05/15 10:15:26;;;;;;;9.10;6.00;;;24.70;87.40;;;;;;4997247;28;20049;-76
2023/05/15 10:17:52;;;;;;;6.97;6.28;;;24.80;87.30;;;;;;4996901;28;20046;-73
2023/05/15 10:20:20;;;;;;;6.53;5.82;;;25.10;87.90;;;;;;5014744;28;20132;-73
2023/05/15 10:22:50;;;;;;;9.38;7.18;;;25.30;86.90;;;;;;5014324;28;20507;-75
2023/05/15 10:25:38;;;;;;;7.10;6.40;;;24.50;84.70;;;;;;5014617;28;20045;-73
2023/05/15 10:28:08;;;;;;;7.10;6.38;;;23.50;87.40;;;;;;4997093;28;20052;-75
2023/05/15 10:30:35;;;;;;;7.05;5.97;;;22.90;83.10;;;;;;4996656;28;20068;-73
2023/05/15 10:33:03;;;;;;;7.15;6.47;;;22.20;88.60;;;;;;5014566;28;20116;-73
2023/05/15 10:35:29;;;;;;;8.23;7.15;;;22.30;89.20;;;;;;4996531;28;20460;-72
2023/05/15 10:37:56;;;;;;;6.22;5.45;;;21.90;90.10;;;;;;5014617;28;20069;-76
2023/05/15 10:40:22;;;;;;;7.00;6.40;;;22.30;90.10;;;;;;4996671;28;20390;-76
2023/05/15 10:42:49;;;;;;;9.10;7.63;;;22.40;90.20;;;;;;5013456;28;20045;-74
2023/05/15 10:45:15;;;;;;;7.90;6.95;;;22.40;90.10;;;;;;5014023;28;20050;-76
2023/05/15 10:47:42;;;;;;;8.88;7.78;;;22.60;90.30;;;;;;5013472;28;20057;-77
2023/05/15 10:50:09;;;;;;;10.82;7.88;;;22.80;90.50;;;;;;5014044;28;20143;-75
2023/05/15 10:52:37;;;;;;;10.45;7.88;;;22.50;89.30;;;;;;4980435;28;20053;-76
2023/05/15 10:55:06;;;;;;;7.30;6.57;;;22.30;90.50;;;;;;5013673;28;20068;-74
2023/05/15 10:57:32;;;;;;;8.68;7.47;;;21.90;91.50;;;;;;4997306;28;20046;-78
2023/05/15 10:59:57;;;;;;;7.30;6.57;;;21.70;91.00;;;;;;4999400;28;20042;-76
2023/05/15 11:02:30;;;;;;;7.18;6.47;;;21.30;91.50;;;;;;5015378;28;20382;-74
2023/05/15 11:05:00;;;;;;;8.32;6.35;;;21.40;92.00;;;;;;5015647;28;20553;-74
2023/05/15 11:07:27;;;;;;;9.45;7.45;;;21.20;91.10;;;;;;5013987;28;20068;-76
2023/05/15 11:09:54;;;;;;;8.52;6.30;;;21.20;91.80;;;;;;4996648;28;20081;-77
2023/05/15 11:12:20;;;;;;;7.88;7.10;;;20.80;91.80;;;;;;4996003;28;20096;-75
2023/05/15 11:14:55;;;;;;;10.45;7.90;;;20.10;92.50;;;;;;5013334;28;20042;-77
2023/05/15 11:17:25;;;;;;;9.65;7.25;;;19.70;92.80;;;;;;4996159;28;20053;-75
2023/05/15 11:19:50;;;;;;;10.75;7.60;;;19.70;93.30;;;;;;5013491;28;20125;-75
2023/05/15 11:22:31;;;;;;;9.45;7.63;;;20.10;93.50;;;;;;4996189;28;20096;-75
2023/05/15 11:24:59;;;;;;;8.35;7.47;;;20.10;93.00;;;;;;4980410;28;20095;-76
2023/05/15 11:27:29;;;;;;;7.65;6.47;;;20.10;93.60;;;;;;4995786;28;20100;-77
2023/05/15 11:30:08;;;;;;;7.30;6.68;;;20.40;93.70;;;;;;5013258;28;20390;-78
2023/05/15 11:32:44;;;;;;;8.50;7.43;;;20.60;93.90;;;;;;4995890;28;20125;-76
2023/05/15 11:35:11;;;;;;;8.60;7.70;;;20.80;92.70;;;;;;4995703;28;20049;-75
2023/05/15 11:37:46;;;;;;;8.27;6.15;;;20.50;92.50;;;;;;4995955;28;20049;-78
2023/05/15 11:40:42;;;;;;;9.35;8.32;;;20.40;94.10;;;;;;5013162;28;20068;-75
2023/05/15 11:43:30;;;;;;;8.25;7.03;;;19.80;93.40;;;;;;4995211;28;20038;-78
2023/05/15 11:46:08;;;;;;;10.38;8.57;;;20.00;94.40;;;;;;5013075;28;20046;-76
2023/05/15 11:48:54;;;;;;;8.75;7.72;;;20.00;93.70;;;;;;5012563;28;20116;-74
2023/05/15 11:51:25;;;;;;;7.75;7.05;;;19.60;94.10;;;;;;5012587;28;20492;-75
2023/05/15 11:53:52;;;;;;;10.20;7.57;;;19.80;95.10;;;;;;5012856;28;20512;-77
2023/05/15 11:56:20;;;;;;;9.02;6.72;;;20.00;94.30;;;;;;5012733;28;20100;-74
2023/05/15 11:58:50;;;;;;;7.07;6.25;;;19.90;93.70;;;;;;4995342;28;20061;-76
2023/05/15 12:01:16;;;;;;;8.05;7.25;;;19.80;93.80;;;;;;4995870;28;20104;-76
2023/05/15 12:03:41;;;;;;;8.40;6.68;;;19.70;93.80;;;;;;4995123;28;20054;-76
2023/05/15 12:06:09;;;;;;;7.75;6.95;;;20.00;93.90;;;;;;5012825;28;20487;-73
2023/05/15 12:08:38;;;;;;;7.68;6.88;;;19.90;93.50;;;;;;5012364;28;20572;-75
2023/05/15 12:11:05;;;;;;;7.18;6.47;;;20.10;93.90;;;;;;4995924;28;20056;-77
2023/05/15 12:13:31;;;;;;;7.88;7.18;;;20.40;93.70;;;;;;5012986;28;20049;-76
2023/05/15 12:15:58;;;;;;;11.90;6.88;;;20.40;93.30;;;;;;5012433;28;20044;-76
2023/05/15 12:18:24;;;;;;;8.57;6.72;;;19.90;93.70;;;;;;5012567;28;20085;-75
2023/05/15 12:20:53;;;;;;;7.10;6.50;;;19.40;94.30;;;;;;5012668;28;20061;-79
2023/05/15 12:23:24;;;;;;;7.75;7.03;;;19.40;94.70;;;;;;4995153;28;20073;-77
2023/05/15 12:25:53;;;;;;;9.10;6.15;;;19.50;94.90;;;;;;5012622;28;20168;-75
2023/05/15 12:28:20;;;;;;;8.95;8.05;;;19.40;94.80;;;;;;5012619;28;20473;-75
2023/05/15 12:30:46;;;;;;;8.45;6.85;;;19.10;94.70;;;;;;5012426;28;20130;-75
2023/05/15 12:33:12;;;;;;;8.38;7.40;;;19.10;95.00;;;;;;4995341;28;20053;-76
2023/05/15 12:35:42;;;;;;;7.47;6.68;;;19.40;95.10;;;;;;5012634;28;20042;-80
2023/05/15 12:38:12;;;;;;;10.60;8.45;;;19.70;95.40;;;;;;5012307;28;20038;-78
2023/05/15 12:40:38;;;;;;;9.60;8.60;;;19.80;95.10;;;;;;5012826;28;20038;-75